createdAt,value
2022-12-28T00:01:11.842Z,77.71
2022-12-28T00:03:38.950Z,77.98
2022-12-28T00:06:07.486Z,78.00
2022-12-28T00:08:34.464Z,77.60
2022-12-28T00:11:07.864Z,77.86
2022-12-28T00:13:36.479Z,77.44
2022-12-28T00:16:12.098Z,77.70
2022-12-28T00:18:39.049Z,77.30
2022-12-28T00:21:06.230Z,78.35
2022-12-28T00:23:33.194Z,77.97
2022-12-28T00:26:11.837Z,77.19
2022-12-28T00:28:39.402Z,76.99
2022-12-28T00:31:07.085Z,77.32
2022-12-28T00:33:34.158Z,77.94
2022-12-28T00:36:02.300Z,78.50
2022-12-28T00:38:33.483Z,78.40
2022-12-28T00:41:03.028Z,78.32
2022-12-28T00:43:30.321Z,78.62
2022-12-28T00:45:59.592Z,78.86
2022-12-28T00:48:26.512Z,79.48
2022-12-28T00:50:53.583Z,79.61
2022-12-28T00:53:20.686Z,80.19
2022-12-28T00:55:50.946Z,80.84
2022-12-28T00:58:17.875Z,80.87
2022-12-28T01:00:44.741Z,80.95
2022-12-28T01:03:11.589Z,81.01
2022-12-28T01:05:40.014Z,81.77
2022-12-28T01:08:08.494Z,81.33
2022-12-28T01:10:35.409Z,81.66
2022-12-28T01:13:02.237Z,81.43
2022-12-28T01:15:29.165Z,82.90
2022-12-28T01:17:56.117Z,82.47
2022-12-28T01:20:23.012Z,82.88
2022-12-28T01:22:49.933Z,83.87
2022-12-28T01:25:17.009Z,84.79
2022-12-28T01:27:43.978Z,84.38
2022-12-28T01:30:13.780Z,84.64
2022-12-28T01:32:40.813Z,84.19
2022-12-28T01:35:08.277Z,84.46
2022-12-28T01:37:35.941Z,84.14
2022-12-28T01:40:02.858Z,83.76
2022-12-28T01:42:29.666Z,83.22
2022-12-28T01:44:56.520Z,82.97
2022-12-28T01:47:31.781Z,83.58
2022-12-28T01:50:03.384Z,81.97
2022-12-28T01:52:32.790Z,81.42
2022-12-28T01:55:14.160Z,80.52
2022-12-28T01:57:51.427Z,80.89
2022-12-28T02:00:18.553Z,80.97
2022-12-28T02:02:52.578Z,80.19
2022-12-28T02:05:20.464Z,78.67
2022-12-28T02:07:57.610Z,77.45
2022-12-28T02:10:41.233Z,77.36
2022-12-28T02:13:12.744Z,77.67
2022-12-28T02:15:39.638Z,76.73
2022-12-28T02:18:06.741Z,76.10
2022-12-28T02:21:15.043Z,75.00
2022-12-28T02:24:09.158Z,74.03
2022-12-28T02:27:14.775Z,73.09
2022-12-28T02:29:53.454Z,73.24
2022-12-28T02:32:57.840Z,73.83
2022-12-28T02:35:25.730Z,72.15
2022-12-28T02:38:05.840Z,72.01
2022-12-28T02:40:42.558Z,72.48
2022-12-28T02:43:09.845Z,72.08
2022-12-28T02:46:01.552Z,71.39
2022-12-28T02:48:47.330Z,70.99
2022-12-28T02:51:55.625Z,71.14
2022-12-28T02:54:42.708Z,71.72
2022-12-28T02:57:42.733Z,71.65
2022-12-28T03:00:15.657Z,71.35
2022-12-28T03:03:01.317Z,71.52
2022-12-28T03:06:34.106Z,70.71
2022-12-28T03:09:36.879Z,70.52
2022-12-28T03:26:42.840Z,67.43
2022-12-28T03:29:33.315Z,66.77
2022-12-28T03:32:01.211Z,66.58
2022-12-28T03:34:28.397Z,66.04
2022-12-28T03:37:07.269Z,66.88
2022-12-28T03:39:38.876Z,68.01
2022-12-28T03:42:40.479Z,68.83
2022-12-28T03:45:45.297Z,69.64
2022-12-28T03:48:18.556Z,70.04
2022-12-28T03:50:48.640Z,69.71
2022-12-28T03:53:20.311Z,69.62
2022-12-28T03:55:49.427Z,69.88
2022-12-28T03:58:21.347Z,69.94
2022-12-28T04:00:49.486Z,69.79
2022-12-28T04:03:23.899Z,69.90
2022-12-28T04:05:50.975Z,69.24
2022-12-28T04:08:17.818Z,68.36
2022-12-28T04:10:44.732Z,68.87
2022-12-28T04:13:11.627Z,68.32
2022-12-28T04:15:58.841Z,68.75
2022-12-28T04:18:26.861Z,68.80
2022-12-28T04:20:55.298Z,66.80
2022-12-28T04:23:22.505Z,65.83
2022-12-28T04:26:11.768Z,65.48
2022-12-28T04:28:40.389Z,65.04
2022-12-28T04:31:26.047Z,65.82
2022-12-28T04:34:04.159Z,65.37
2022-12-28T04:36:34.612Z,65.98
2022-12-28T04:39:02.930Z,66.32
2022-12-28T04:41:32.558Z,66.70
2022-12-28T04:43:59.530Z,67.54
2022-12-28T04:46:26.556Z,67.47
2022-12-28T04:48:53.634Z,68.09
2022-12-28T04:51:24.214Z,68.12
2022-12-28T04:53:51.850Z,67.54
2022-12-28T04:56:20.287Z,67.72
2022-12-28T04:58:51.857Z,68.38
2022-12-28T05:01:19.963Z,68.80
2022-12-28T05:03:55.096Z,68.27
2022-12-28T05:06:25.509Z,68.53
2022-12-28T05:08:52.420Z,68.25
2022-12-28T05:11:21.766Z,68.09
2022-12-28T05:13:49.499Z,67.91
2022-12-28T05:16:21.828Z,68.09
2022-12-28T05:18:48.933Z,67.52
2022-12-28T05:21:19.251Z,67.67
2022-12-28T05:23:46.707Z,67.04
2022-12-28T05:26:16.358Z,66.81
2022-12-28T05:28:43.473Z,65.93
2022-12-28T05:31:13.786Z,65.58
2022-12-28T05:33:41.621Z,65.64
2022-12-28T05:36:11.665Z,65.41
2022-12-28T05:38:39.075Z,64.13
2022-12-28T05:41:26.239Z,63.26
2022-12-28T05:43:54.123Z,63.12
2022-12-28T05:46:26.815Z,62.80
2022-12-28T05:48:55.426Z,62.03
2022-12-28T05:51:24.916Z,61.83
2022-12-28T05:53:51.879Z,61.76
2022-12-28T05:56:23.829Z,60.55
2022-12-28T05:59:05.698Z,58.96
2022-12-28T06:01:35.275Z,56.49
2022-12-28T06:04:04.793Z,55.14
2022-12-28T06:06:33.559Z,56.20
2022-12-28T06:09:01.961Z,56.39
2022-12-28T06:11:30.069Z,56.94
2022-12-28T06:13:59.052Z,55.99
2022-12-28T06:16:31.650Z,56.54
2022-12-28T06:18:58.897Z,56.37
2022-12-28T06:21:30.939Z,56.14
2022-12-28T06:23:59.821Z,56.39
2022-12-28T06:26:29.621Z,56.55
2022-12-28T06:28:57.207Z,57.06
2022-12-28T06:31:29.767Z,57.04
2022-12-28T06:33:58.991Z,56.60
2022-12-28T06:36:30.759Z,57.03
2022-12-28T06:38:59.849Z,56.16
2022-12-28T06:41:28.154Z,55.53
2022-12-28T06:43:55.962Z,56.66
2022-12-28T06:46:25.173Z,55.52
2022-12-28T06:48:52.337Z,55.25
2022-12-28T06:51:25.157Z,55.03
2022-12-28T06:53:53.540Z,53.68
2022-12-28T06:56:26.458Z,53.39
2022-12-28T06:59:00.331Z,54.09
2022-12-28T07:01:40.941Z,53.48
2022-12-28T07:04:09.722Z,52.86
2022-12-28T07:06:39.701Z,53.11
2022-12-28T07:09:10.181Z,52.96
2022-12-28T07:11:37.594Z,52.29
2022-12-28T07:14:04.704Z,52.72
2022-12-28T07:18:59.355Z,51.18
2022-12-28T07:21:31.533Z,50.66
2022-12-28T07:23:59.499Z,50.07
2022-12-28T07:26:29.359Z,50.09
2022-12-28T07:28:58.252Z,49.55
2022-12-28T07:31:28.359Z,49.23
2022-12-28T07:33:56.775Z,47.68
2022-12-28T07:36:25.279Z,49.54
2022-12-28T07:38:52.388Z,49.88
2022-12-28T07:41:22.418Z,49.53
2022-12-28T07:43:50.032Z,46.77
2022-12-28T07:46:22.541Z,47.38
2022-12-28T07:48:50.277Z,45.80
2022-12-28T07:51:21.883Z,45.50
2022-12-28T07:53:50.153Z,43.38
2022-12-28T07:56:18.235Z,41.38
2022-12-28T07:58:52.253Z,36.78
2022-12-28T08:01:23.565Z,35.69
2022-12-28T08:03:55.224Z,36.28
2022-12-28T08:06:23.558Z,38.23
2022-12-28T08:08:56.369Z,38.80
2022-12-28T08:11:25.987Z,40.34
2022-12-28T08:13:55.255Z,39.02
2022-12-28T08:16:24.612Z,37.54
2022-12-28T08:18:51.426Z,34.48
2022-12-28T08:21:25.056Z,32.12
2022-12-28T08:23:52.267Z,29.03
2022-12-28T08:26:22.549Z,27.54
2022-12-28T08:28:51.675Z,27.49
2022-12-28T08:31:24.389Z,29.31
2022-12-28T08:33:53.616Z,30.25
2022-12-28T08:36:20.946Z,29.78
2022-12-28T08:38:48.261Z,28.53
2022-12-28T08:41:17.825Z,28.04
2022-12-28T08:43:45.863Z,28.57
2022-12-28T08:46:18.826Z,27.51
2022-12-28T08:48:48.089Z,28.81
2022-12-28T08:51:27.035Z,28.37
2022-12-28T08:53:54.232Z,28.08
2022-12-28T08:56:27.828Z,28.69
2022-12-28T08:58:55.878Z,29.33
2022-12-28T09:01:27.799Z,27.11
2022-12-28T09:03:57.473Z,27.04
2022-12-28T09:06:37.207Z,28.08
2022-12-28T09:09:07.418Z,28.52
2022-12-28T09:11:38.554Z,27.98
2022-12-28T09:14:12.031Z,23.55
2022-12-28T09:16:42.593Z,21.18
2022-12-28T09:19:13.809Z,21.97
2022-12-28T09:21:41.777Z,23.61
2022-12-28T09:24:08.735Z,24.06
2022-12-28T09:26:37.808Z,25.01
2022-12-28T09:29:08.806Z,26.52
2022-12-28T09:31:37.437Z,27.85
2022-12-28T09:36:53.157Z,27.89
2022-12-28T09:39:24.699Z,28.45
2022-12-28T09:41:55.146Z,29.98
2022-12-28T09:44:40.471Z,29.83
2022-12-28T09:47:13.236Z,29.08
2022-12-28T09:50:17.405Z,29.39
2022-12-28T09:53:08.578Z,30.28
2022-12-28T09:55:38.424Z,29.56
2022-12-28T09:58:11.324Z,29.24
2022-12-28T10:00:48.042Z,29.82
2022-12-28T10:03:19.942Z,31.51
2022-12-28T10:05:47.990Z,30.64
2022-12-28T10:08:19.159Z,30.76
2022-12-28T10:10:49.035Z,31.15
2022-12-28T10:16:16.542Z,25.72
2022-12-28T10:18:43.560Z,25.76
2022-12-28T10:21:11.593Z,26.20
2022-12-28T10:23:56.840Z,24.70
2022-12-28T10:26:26.991Z,25.11
2022-12-28T10:28:58.401Z,26.31
2022-12-28T10:31:37.780Z,27.89
2022-12-28T10:34:24.526Z,28.44
2022-12-28T10:36:54.469Z,26.43
2022-12-28T10:39:29.869Z,22.57
2022-12-28T10:42:00.780Z,21.60
2022-12-28T10:47:28.555Z,25.07
2022-12-28T10:50:26.929Z,27.98
2022-12-28T10:52:42.194Z,29.69
2022-12-28T10:55:30.348Z,29.26
2022-12-28T10:58:32.903Z,27.90
2022-12-28T11:01:25.997Z,26.14
2022-12-28T11:03:21.192Z,22.56
2022-12-28T11:03:55.922Z,25.23
2022-12-28T11:06:31.440Z,25.30
2022-12-28T11:09:16.557Z,27.79
2022-12-28T11:11:46.175Z,29.41
2022-12-28T11:14:36.346Z,30.93
2022-12-28T11:17:27.749Z,31.69
2022-12-28T11:20:08.795Z,30.33
2022-12-28T11:22:35.760Z,29.50
2022-12-28T11:25:03.114Z,28.71
2022-12-28T11:27:30.134Z,28.27
2022-12-28T11:29:57.980Z,29.44
2022-12-28T11:32:30.037Z,28.90
2022-12-28T11:34:58.110Z,27.73
2022-12-28T11:37:25.212Z,26.40
2022-12-28T11:39:53.219Z,26.45
2022-12-28T11:42:40.679Z,26.69
2022-12-28T11:45:16.523Z,25.76
2022-12-28T11:47:43.505Z,24.48
2022-12-28T11:50:36.707Z,24.53
2022-12-28T11:53:19.403Z,24.73
2022-12-28T11:56:01.437Z,23.30
2022-12-28T11:58:31.329Z,22.52
2022-12-28T12:01:00.208Z,21.97
2022-12-28T12:03:58.475Z,25.73
2022-12-28T12:06:43.833Z,26.05
2022-12-28T12:09:26.448Z,27.11
2022-12-28T12:12:22.795Z,27.29
2022-12-28T12:14:57.587Z,27.91
2022-12-28T12:17:42.752Z,27.86
2022-12-28T12:20:49.033Z,28.42
2022-12-28T12:23:43.574Z,28.78
2022-12-28T12:26:28.160Z,29.09
2022-12-28T12:29:07.883Z,28.87
2022-12-28T12:31:41.514Z,28.86
2022-12-28T12:34:24.640Z,27.28
2022-12-28T12:37:06.672Z,29.54
2022-12-28T12:39:42.541Z,28.91
2022-12-28T12:42:44.412Z,37.36
2022-12-28T12:45:21.958Z,39.33
2022-12-28T12:47:48.943Z,40.93
2022-12-28T12:50:33.412Z,42.27
2022-12-28T12:53:18.814Z,43.90
2022-12-28T12:56:07.773Z,44.22
2022-12-28T12:58:57.562Z,45.41
2022-12-28T13:01:30.122Z,46.60
2022-12-28T13:04:06.700Z,43.77
2022-12-28T13:06:36.850Z,45.45
2022-12-28T13:09:06.572Z,44.62
2022-12-28T13:11:38.341Z,45.33
2022-12-28T13:14:06.786Z,44.68
2022-12-28T13:16:33.870Z,44.92
2022-12-28T13:19:07.278Z,44.50
2022-12-28T13:21:46.248Z,44.17
2022-12-28T13:24:22.146Z,44.59
2022-12-28T13:26:50.830Z,46.44
2022-12-28T13:29:21.236Z,47.18
2022-12-28T13:31:50.010Z,47.49
2022-12-28T13:34:16.771Z,47.37
2022-12-28T13:36:50.707Z,48.39
2022-12-28T13:39:19.623Z,47.25
2022-12-28T13:42:02.574Z,46.91
2022-12-28T13:44:38.168Z,46.11
2022-12-28T13:47:14.060Z,47.12
2022-12-28T13:49:56.061Z,46.81
2022-12-28T13:52:46.679Z,48.47
2022-12-28T13:55:18.451Z,48.96
2022-12-28T13:57:57.408Z,50.04
2022-12-28T14:00:27.777Z,50.19
2022-12-28T14:02:56.940Z,48.26
2022-12-28T14:05:29.948Z,47.99
2022-12-28T14:07:59.028Z,48.07
2022-12-28T14:10:27.329Z,48.47
2022-12-28T14:12:54.987Z,48.84
2022-12-28T14:15:22.407Z,49.68
2022-12-28T14:17:51.619Z,49.23
2022-12-28T14:20:18.925Z,49.82
2022-12-28T14:22:46.030Z,50.18
2022-12-28T14:25:14.498Z,48.92
2022-12-28T14:28:08.089Z,47.95
2022-12-28T14:30:41.401Z,48.75
2022-12-28T14:33:24.737Z,48.90
2022-12-28T14:35:59.393Z,48.43
2022-12-28T14:38:33.903Z,49.57
2022-12-28T14:41:02.523Z,49.67
2022-12-28T14:43:32.596Z,51.36
2022-12-28T14:46:31.908Z,50.58
2022-12-28T14:49:00.368Z,50.86
2022-12-28T14:51:31.820Z,50.43
2022-12-28T14:54:19.502Z,48.71
2022-12-28T14:56:53.687Z,48.79
2022-12-28T14:59:29.540Z,48.79
2022-12-28T15:01:56.769Z,49.71
2022-12-28T15:04:33.990Z,49.67
2022-12-28T15:07:00.848Z,49.60
2022-12-28T15:09:27.688Z,50.14
2022-12-28T15:12:14.653Z,50.61
2022-12-28T15:14:42.206Z,50.02
2022-12-28T15:28:19.060Z,51.91
2022-12-28T15:30:46.099Z,51.39
2022-12-28T15:33:13.133Z,52.09
2022-12-28T15:35:40.000Z,51.50
2022-12-28T15:38:06.921Z,51.21
2022-12-28T15:40:33.840Z,51.42
2022-12-28T15:43:00.719Z,52.02
2022-12-28T15:45:27.597Z,51.53
2022-12-28T15:47:55.124Z,52.55
2022-12-28T15:50:22.048Z,51.69
2022-12-28T15:52:49.147Z,51.75
2022-12-28T15:55:16.189Z,51.65
2022-12-28T15:57:44.636Z,51.71
2022-12-28T16:00:18.778Z,52.25
2022-12-28T16:02:46.747Z,52.52
2022-12-28T16:05:14.397Z,52.91
2022-12-28T16:07:41.274Z,53.75
2022-12-28T16:10:08.552Z,53.89
2022-12-28T16:12:35.447Z,53.67
2022-12-28T16:15:02.381Z,54.04
2022-12-28T16:17:29.246Z,54.84
2022-12-28T16:19:56.161Z,55.10
2022-12-28T16:22:23.361Z,54.69
2022-12-28T16:24:50.260Z,55.22
2022-12-28T16:27:17.453Z,55.05
2022-12-28T16:29:46.199Z,55.48
2022-12-28T16:32:13.053Z,56.16
2022-12-28T16:34:40.201Z,56.04
2022-12-28T16:37:07.399Z,56.43
2022-12-28T16:39:34.846Z,56.03
2022-12-28T16:42:01.815Z,56.65
2022-12-28T16:44:29.510Z,56.60
2022-12-28T16:47:00.045Z,57.08
2022-12-28T16:49:27.994Z,56.94
2022-12-28T16:51:54.931Z,57.63
2022-12-28T16:54:23.792Z,57.51
2022-12-28T16:56:52.121Z,57.69
2022-12-28T16:59:29.448Z,58.77
2022-12-28T17:01:57.998Z,58.70
2022-12-28T17:04:24.980Z,59.64
2022-12-28T17:06:52.137Z,60.01
2022-12-28T17:09:19.718Z,61.79
2022-12-28T17:11:48.365Z,60.59
2022-12-28T17:14:29.227Z,61.11
2022-12-28T17:17:02.642Z,61.84
2022-12-28T17:19:29.616Z,62.11
2022-12-28T17:21:56.469Z,62.48
2022-12-28T17:24:23.323Z,63.17
2022-12-28T17:26:50.235Z,63.44
2022-12-28T17:29:17.322Z,63.64
2022-12-28T17:31:44.336Z,63.48
2022-12-28T17:34:11.395Z,63.13
2022-12-28T17:36:39.070Z,63.25
2022-12-28T17:39:06.012Z,64.53
2022-12-28T17:41:33.130Z,65.38
2022-12-28T17:44:00.743Z,65.32
2022-12-28T17:46:29.535Z,65.11
2022-12-28T17:48:58.406Z,66.83
2022-12-28T17:51:26.700Z,66.94
2022-12-28T17:53:56.598Z,67.38
2022-12-28T17:56:23.621Z,68.23
2022-12-28T17:58:55.766Z,67.93
2022-12-28T18:01:23.012Z,67.55
2022-12-28T18:03:50.166Z,67.54
2022-12-28T18:06:17.221Z,69.17
2022-12-28T18:08:44.770Z,70.18
2022-12-28T18:11:11.686Z,70.03
2022-12-28T18:13:39.803Z,70.50
2022-12-28T18:16:08.772Z,70.06
2022-12-28T18:18:35.676Z,69.75
2022-12-28T18:21:07.776Z,69.99
2022-12-28T18:23:35.428Z,69.66
2022-12-28T18:26:02.256Z,69.91
2022-12-28T18:28:29.630Z,69.83
2022-12-28T18:31:01.489Z,69.65
2022-12-28T18:33:29.834Z,69.80
2022-12-28T18:35:57.078Z,69.70
2022-12-28T18:38:24.147Z,68.10
2022-12-28T18:40:52.541Z,66.12
2022-12-28T18:43:20.142Z,64.04
2022-12-28T18:45:55.287Z,63.75
2022-12-28T18:48:26.691Z,63.56
2022-12-28T18:50:59.816Z,63.52
2022-12-28T18:53:28.258Z,63.69
2022-12-28T18:56:00.466Z,63.43
2022-12-28T18:58:32.742Z,64.11
2022-12-28T19:01:09.334Z,62.43
2022-12-28T19:03:43.575Z,62.96
2022-12-28T19:06:11.028Z,63.14
2022-12-28T19:08:39.621Z,63.49
2022-12-28T19:11:08.296Z,63.71
2022-12-28T19:13:41.292Z,64.05
2022-12-28T19:16:12.232Z,63.79
2022-12-28T19:18:39.115Z,64.31
2022-12-28T19:21:17.712Z,64.10
2022-12-28T19:23:45.298Z,63.49
2022-12-28T19:26:12.480Z,63.22
2022-12-28T19:28:39.346Z,63.97
2022-12-28T19:31:06.201Z,64.53
2022-12-28T19:33:33.105Z,65.37
2022-12-28T19:36:00.153Z,66.23
2022-12-28T19:38:27.644Z,67.28
2022-12-28T19:40:55.939Z,67.29
2022-12-28T19:43:23.490Z,67.36
2022-12-28T19:45:50.260Z,69.32
2022-12-28T19:48:17.105Z,68.79
2022-12-28T19:50:43.891Z,69.61
2022-12-28T19:53:10.698Z,69.85
2022-12-28T19:55:37.614Z,70.07
2022-12-28T19:58:04.467Z,70.48
2022-12-28T20:00:31.275Z,70.26
2022-12-28T20:02:58.338Z,70.75
2022-12-28T20:05:25.991Z,69.92
2022-12-28T20:07:52.930Z,69.68
2022-12-28T20:10:19.809Z,70.00
2022-12-28T20:12:46.673Z,70.29
2022-12-28T20:15:13.474Z,70.30
2022-12-28T20:17:42.194Z,70.17
2022-12-28T20:20:09.226Z,71.23
2022-12-28T20:22:40.340Z,71.45
2022-12-28T20:25:07.698Z,71.55
2022-12-28T20:27:34.769Z,71.48
2022-12-28T20:30:01.724Z,71.99
2022-12-28T20:32:28.601Z,71.66
2022-12-28T20:34:55.668Z,71.72
2022-12-28T20:37:22.491Z,72.51
2022-12-28T20:39:49.332Z,73.78
2022-12-28T20:42:34.689Z,74.03
2022-12-28T20:45:01.670Z,74.46
2022-12-28T20:47:28.553Z,73.69
2022-12-28T20:49:55.540Z,73.44
2022-12-28T20:52:22.595Z,73.70
2022-12-28T20:54:49.786Z,74.18
2022-12-28T20:57:16.691Z,74.24
2022-12-28T20:59:43.644Z,73.95
2022-12-28T21:02:10.578Z,73.62
2022-12-28T21:04:37.594Z,74.39
2022-12-28T21:07:05.152Z,74.26
2022-12-28T21:09:32.216Z,74.99
2022-12-28T21:11:59.086Z,74.87
2022-12-28T21:14:25.964Z,74.75
2022-12-28T21:16:52.905Z,75.39
2022-12-28T21:19:19.975Z,75.81
2022-12-28T21:21:48.534Z,76.26
2022-12-28T21:24:15.439Z,76.26
2022-12-28T21:26:42.313Z,76.50
2022-12-28T21:29:09.274Z,77.58
2022-12-28T21:31:36.451Z,77.47
2022-12-28T21:34:03.602Z,77.28
2022-12-28T21:36:30.614Z,78.45
2022-12-28T21:38:57.568Z,77.92
2022-12-28T21:41:43.196Z,78.82
2022-12-28T21:44:13.511Z,78.15
2022-12-28T21:46:41.080Z,79.14
2022-12-28T21:49:08.113Z,78.94
2022-12-28T21:51:35.641Z,78.84
2022-12-28T21:54:15.856Z,78.96
2022-12-28T21:56:45.008Z,78.68
2022-12-28T21:59:14.869Z,79.55
2022-12-28T22:02:17.656Z,80.05
2022-12-28T22:05:19.632Z,79.79
2022-12-28T22:07:46.753Z,79.21
2022-12-28T22:10:32.793Z,79.60
2022-12-28T22:13:00.006Z,79.79
2022-12-28T22:15:45.667Z,79.94
2022-12-28T22:21:07.681Z,80.63
2022-12-28T22:23:35.219Z,80.55
2022-12-28T22:26:02.705Z,80.36
2022-12-28T22:28:29.590Z,80.15
2022-12-28T22:31:03.477Z,80.18
2022-12-28T22:33:30.364Z,80.99
2022-12-28T22:35:57.336Z,81.06
2022-12-28T22:38:24.144Z,80.83
2022-12-28T22:41:00.266Z,80.66
2022-12-28T22:43:27.123Z,80.35
2022-12-28T22:46:05.510Z,80.31
2022-12-28T22:48:32.630Z,80.55
2022-12-28T22:51:07.471Z,80.36
2022-12-28T22:53:36.541Z,80.46
2022-12-28T22:56:06.434Z,80.45
2022-12-28T22:58:34.369Z,81.11
2022-12-28T23:01:13.090Z,82.57
2022-12-28T23:03:41.543Z,81.63
2022-12-28T23:06:10.196Z,81.04
2022-12-28T23:08:37.232Z,80.88
2022-12-28T23:11:27.089Z,81.64
2022-12-28T23:13:54.014Z,81.54
2022-12-28T23:16:20.987Z,81.39
2022-12-28T23:19:06.596Z,80.95
2022-12-28T23:21:51.950Z,80.98
2022-12-28T23:24:37.477Z,81.34
2022-12-28T23:27:21.009Z,80.66
2022-12-28T23:29:48.095Z,80.87
2022-12-28T23:32:15.034Z,81.32
2022-12-28T23:34:41.923Z,81.69
2022-12-28T23:37:08.770Z,81.62
2022-12-28T23:39:35.791Z,82.18
2022-12-28T23:42:02.647Z,81.92
2022-12-28T23:44:29.701Z,81.75
2022-12-28T23:46:59.248Z,82.36
2022-12-28T23:49:29.488Z,82.55
2022-12-28T23:51:56.497Z,82.38
2022-12-28T23:54:23.423Z,82.58
2022-12-28T23:56:50.246Z,82.93
2022-12-28T23:59:17.179Z,82.69
